createdAt,value
2024-02-29T00:02:13.093Z,20.56
2024-02-29T00:04:39.751Z,20.17
2024-02-29T00:07:06.725Z,20.65
2024-02-29T00:09:34.053Z,19.87
2024-02-29T00:12:00.779Z,20.26
2024-02-29T00:14:28.124Z,20.46
2024-02-29T00:16:55.016Z,20.57
2024-02-29T00:19:21.673Z,20.55
2024-02-29T00:21:48.531Z,20.63
2024-02-29T00:24:15.285Z,19.95
2024-02-29T00:26:44.995Z,20.24
2024-02-29T00:29:11.607Z,20.06
2024-02-29T00:31:44.574Z,20.52
2024-02-29T00:34:14.287Z,20.46
2024-02-29T00:36:41.221Z,20.68
2024-02-29T00:39:14.943Z,20.49
2024-02-29T00:41:42.652Z,20.39
2024-02-29T00:44:10.534Z,20.96
2024-02-29T00:46:41.053Z,20.98
2024-02-29T00:49:07.821Z,20.75
2024-02-29T00:51:34.567Z,20.85
2024-02-29T00:54:01.189Z,20.83
2024-02-29T00:56:28.097Z,20.43
2024-02-29T00:58:54.694Z,20.66
2024-02-29T01:01:21.498Z,20.17
2024-02-29T01:03:48.333Z,20.58
2024-02-29T01:06:14.998Z,19.80
2024-02-29T01:08:41.688Z,20.36
2024-02-29T01:11:08.377Z,20.25
2024-02-29T01:13:36.047Z,19.58
2024-02-29T01:16:02.732Z,19.85
2024-02-29T01:18:29.426Z,20.36
2024-02-29T01:20:56.027Z,19.87
2024-02-29T01:23:22.625Z,19.51
2024-02-29T01:25:49.423Z,20.09
2024-02-29T01:28:16.080Z,19.49
2024-02-29T01:30:42.767Z,19.32
2024-02-29T01:33:09.441Z,19.36
2024-02-29T01:35:36.068Z,19.23
2024-02-29T01:38:02.717Z,19.80
2024-02-29T01:40:29.363Z,19.29
2024-02-29T01:42:56.027Z,19.11
2024-02-29T01:45:22.758Z,18.89
2024-02-29T01:47:49.462Z,18.58
2024-02-29T01:50:17.417Z,18.83
2024-02-29T01:52:46.707Z,18.27
2024-02-29T01:55:16.557Z,18.70
2024-02-29T01:57:44.755Z,18.71
2024-02-29T02:00:12.194Z,18.09
2024-02-29T02:02:39.616Z,18.01
2024-02-29T02:05:07.831Z,18.37
2024-02-29T02:07:37.773Z,18.15
2024-02-29T02:10:08.202Z,18.43
2024-02-29T02:12:35.647Z,18.58
2024-02-29T02:15:05.589Z,18.21
2024-02-29T02:17:33.582Z,17.97
2024-02-29T02:20:01.879Z,18.13
2024-02-29T02:22:29.790Z,17.79
2024-02-29T02:24:57.150Z,18.28
2024-02-29T02:27:24.113Z,17.83
2024-02-29T02:29:50.742Z,17.95
2024-02-29T02:32:17.387Z,17.87
2024-02-29T02:34:44.085Z,18.10
2024-02-29T02:37:10.810Z,17.58
2024-02-29T02:39:37.751Z,17.34
2024-02-29T02:42:04.644Z,17.18
2024-02-29T02:44:31.284Z,17.55
2024-02-29T02:46:57.919Z,17.25
2024-02-29T02:49:24.575Z,17.32
2024-02-29T02:51:51.244Z,16.65
2024-02-29T02:54:17.919Z,16.85
2024-02-29T02:56:44.521Z,16.93
2024-02-29T02:59:12.503Z,16.81
2024-02-29T03:01:39.198Z,17.04
2024-02-29T03:04:06.027Z,16.71
2024-02-29T03:06:32.848Z,16.77
2024-02-29T03:08:59.641Z,16.68
2024-02-29T03:11:26.533Z,17.36
2024-02-29T03:13:54.363Z,17.08
2024-02-29T03:16:25.004Z,16.76
2024-02-29T03:18:51.975Z,17.00
2024-02-29T03:21:19.089Z,17.21
2024-02-29T03:23:45.741Z,18.15
2024-02-29T03:26:12.377Z,17.82
2024-02-29T03:28:39.145Z,17.36
2024-02-29T03:31:10.930Z,17.58
2024-02-29T03:33:37.652Z,18.15
2024-02-29T03:36:04.466Z,17.61
2024-02-29T03:38:31.317Z,17.58
2024-02-29T03:40:58.404Z,17.66
2024-02-29T03:43:25.040Z,18.34
2024-02-29T03:45:51.679Z,17.95
2024-02-29T03:48:18.299Z,18.33
2024-02-29T03:50:44.931Z,18.46
2024-02-29T03:53:12.010Z,18.35
2024-02-29T03:55:39.114Z,18.40
2024-02-29T03:58:05.877Z,18.36
2024-02-29T04:00:32.631Z,18.86
2024-02-29T04:02:59.283Z,19.28
2024-02-29T04:05:26.007Z,19.56
2024-02-29T04:07:54.737Z,19.43
2024-02-29T04:10:21.564Z,19.68
2024-02-29T04:12:48.699Z,19.65
2024-02-29T04:15:16.120Z,19.40
2024-02-29T04:17:42.736Z,19.51
2024-02-29T04:20:09.919Z,19.44
2024-02-29T04:22:36.723Z,19.19
2024-02-29T04:25:06.180Z,19.60
2024-02-29T04:27:32.911Z,19.47
2024-02-29T04:29:59.603Z,20.35
2024-02-29T04:32:26.209Z,19.88
2024-02-29T04:34:53.802Z,20.17
2024-02-29T04:37:20.433Z,20.21
2024-02-29T04:39:47.196Z,20.13
2024-02-29T04:42:13.876Z,19.74
2024-02-29T04:44:40.483Z,19.79
2024-02-29T04:47:08.207Z,19.74
2024-02-29T04:49:34.900Z,20.41
2024-02-29T04:52:01.665Z,20.00
2024-02-29T04:54:28.386Z,20.25
2024-02-29T04:56:55.064Z,20.09
2024-02-29T04:59:21.663Z,19.94
2024-02-29T05:01:48.579Z,20.37
2024-02-29T05:04:15.436Z,19.76
2024-02-29T05:06:42.311Z,19.15
2024-02-29T05:09:08.929Z,19.71
2024-02-29T05:11:38.044Z,20.52
2024-02-29T05:14:06.505Z,20.19
2024-02-29T05:16:33.226Z,19.95
2024-02-29T05:18:59.918Z,20.23
2024-02-29T05:21:27.075Z,20.59
2024-02-29T05:23:54.816Z,19.70
2024-02-29T05:26:21.427Z,19.79
2024-02-29T05:28:48.395Z,19.94
2024-02-29T05:31:15.315Z,20.22
2024-02-29T05:33:42.575Z,20.36
2024-02-29T05:36:15.240Z,19.85
2024-02-29T05:38:41.896Z,20.14
2024-02-29T05:41:08.581Z,20.57
2024-02-29T05:43:36.346Z,20.19
2024-02-29T05:46:03.827Z,20.34
2024-02-29T05:48:35.611Z,20.16
2024-02-29T05:51:04.342Z,20.08
2024-02-29T05:53:31.240Z,19.94
2024-02-29T05:55:57.880Z,19.81
2024-02-29T05:58:25.905Z,19.99
2024-02-29T06:00:52.608Z,19.82
2024-02-29T06:03:19.285Z,19.52
2024-02-29T06:05:45.986Z,20.06
2024-02-29T06:08:16.264Z,19.85
2024-02-29T06:10:47.842Z,20.17
2024-02-29T06:13:15.388Z,19.45
2024-02-29T06:15:43.195Z,19.90
2024-02-29T06:18:11.864Z,20.63
2024-02-29T06:20:38.696Z,20.87
2024-02-29T06:23:06.023Z,20.05
2024-02-29T06:25:33.088Z,19.95
2024-02-29T06:27:59.762Z,19.79
2024-02-29T06:30:32.853Z,19.83
2024-02-29T06:33:00.165Z,19.51
2024-02-29T06:35:27.580Z,19.35
2024-02-29T06:37:54.366Z,18.66
2024-02-29T06:40:22.997Z,19.49
2024-02-29T06:42:50.152Z,19.55
2024-02-29T06:45:17.890Z,19.19
2024-02-29T06:47:45.734Z,19.26
2024-02-29T06:50:13.894Z,19.63
2024-02-29T06:52:40.792Z,19.12
2024-02-29T06:55:11.326Z,18.71
2024-02-29T06:57:38.816Z,19.20
2024-02-29T07:00:07.394Z,18.82
2024-02-29T07:02:34.503Z,18.91
2024-02-29T07:05:01.300Z,18.94
2024-02-29T07:07:30.059Z,18.25
2024-02-29T07:09:57.786Z,18.33
2024-02-29T07:12:24.460Z,18.38
2024-02-29T07:14:52.056Z,18.23
2024-02-29T07:17:18.685Z,17.72
2024-02-29T07:19:45.306Z,17.92
2024-02-29T07:22:12.289Z,17.66
2024-02-29T07:24:39.023Z,17.09
2024-02-29T07:27:05.818Z,17.54
2024-02-29T07:29:32.610Z,16.93
2024-02-29T07:31:59.193Z,17.40
2024-02-29T07:34:25.905Z,17.10
2024-02-29T07:36:52.663Z,16.76
2024-02-29T07:39:19.485Z,16.99
2024-02-29T07:41:46.437Z,16.52
2024-02-29T07:44:13.788Z,16.55
2024-02-29T07:46:40.522Z,15.89
2024-02-29T07:49:07.276Z,16.13
2024-02-29T07:51:34.063Z,15.72
2024-02-29T07:54:00.909Z,15.78
2024-02-29T07:56:29.459Z,16.06
2024-02-29T07:58:56.953Z,16.14
2024-02-29T08:01:24.726Z,15.69
2024-02-29T08:03:51.408Z,15.66
2024-02-29T08:06:18.154Z,15.50
2024-02-29T08:08:44.752Z,15.32
2024-02-29T08:11:11.472Z,14.96
2024-02-29T08:13:38.151Z,15.51
2024-02-29T08:16:05.366Z,15.32
2024-02-29T08:18:32.565Z,15.21
2024-02-29T08:20:59.257Z,15.15
2024-02-29T08:23:26.159Z,15.17
2024-02-29T08:25:52.901Z,15.27
2024-02-29T08:28:19.645Z,15.06
2024-02-29T08:30:46.463Z,15.02
2024-02-29T08:33:13.207Z,15.02
2024-02-29T08:35:40.197Z,14.77
2024-02-29T08:38:06.831Z,14.77
2024-02-29T08:40:34.434Z,14.71
2024-02-29T08:43:01.085Z,15.01
2024-02-29T08:45:27.933Z,15.23
2024-02-29T08:47:54.538Z,14.27
2024-02-29T08:50:21.188Z,14.27
2024-02-29T08:52:47.811Z,15.09
2024-02-29T08:55:14.550Z,14.73
2024-02-29T08:57:41.275Z,14.97
2024-02-29T09:00:08.391Z,14.54
2024-02-29T09:02:35.215Z,14.78
2024-02-29T09:05:01.978Z,15.21
2024-02-29T09:07:29.075Z,15.25
2024-02-29T09:09:55.819Z,14.88
2024-02-29T09:12:24.176Z,14.29
2024-02-29T09:14:50.842Z,14.65
2024-02-29T09:17:17.484Z,14.51
2024-02-29T09:19:44.268Z,14.38
2024-02-29T09:22:11.228Z,14.11
2024-02-29T09:24:38.139Z,14.83
2024-02-29T09:27:05.333Z,14.76
2024-02-29T09:29:34.351Z,14.18
2024-02-29T09:32:02.966Z,14.32
2024-02-29T09:34:29.935Z,14.19
2024-02-29T09:36:56.656Z,14.00
2024-02-29T09:39:23.846Z,14.06
2024-02-29T09:42:08.247Z,13.85
2024-02-29T09:44:38.414Z,13.85
2024-02-29T09:47:05.994Z,13.87
2024-02-29T09:49:32.973Z,13.26
2024-02-29T09:52:00.430Z,13.40
2024-02-29T09:54:31.178Z,13.64
2024-02-29T09:56:57.987Z,13.99
2024-02-29T09:59:26.202Z,13.59
2024-02-29T10:01:53.744Z,13.89
2024-02-29T10:04:20.768Z,13.67
2024-02-29T10:06:47.664Z,14.38
2024-02-29T10:09:14.348Z,14.33
2024-02-29T10:11:41.974Z,14.20
2024-02-29T10:14:28.252Z,14.17
2024-02-29T10:16:56.277Z,14.28
2024-02-29T10:19:25.749Z,14.27
2024-02-29T10:21:53.414Z,14.26
2024-02-29T10:24:21.397Z,14.22
2024-02-29T10:26:48.506Z,13.61
2024-02-29T10:29:17.814Z,14.01
2024-02-29T10:31:44.737Z,13.76
2024-02-29T10:34:12.794Z,13.52
2024-02-29T10:36:41.243Z,12.95
2024-02-29T10:39:08.832Z,13.20
2024-02-29T10:41:39.710Z,12.75
2024-02-29T10:44:10.148Z,13.36
2024-02-29T10:46:38.794Z,13.23
2024-02-29T10:49:24.211Z,13.50
2024-02-29T10:51:54.844Z,13.38
2024-02-29T10:54:31.163Z,12.80
2024-02-29T10:57:00.136Z,12.98
2024-02-29T10:59:30.036Z,13.04
2024-02-29T11:02:00.174Z,13.45
2024-02-29T11:04:27.281Z,13.27
2024-02-29T11:06:54.531Z,12.96
2024-02-29T11:09:28.275Z,13.02
2024-02-29T11:12:15.061Z,13.73
2024-02-29T11:14:46.150Z,13.50
2024-02-29T11:17:16.616Z,13.55
2024-02-29T11:19:51.743Z,13.55
2024-02-29T11:22:36.382Z,13.63
2024-02-29T11:25:13.536Z,13.98
2024-02-29T11:27:51.486Z,13.80
2024-02-29T11:30:25.054Z,13.87
2024-02-29T11:32:52.434Z,13.88
2024-02-29T11:35:19.350Z,13.26
2024-02-29T11:37:46.083Z,13.93
2024-02-29T11:40:17.119Z,13.36
2024-02-29T11:42:44.134Z,13.10
2024-02-29T11:45:21.168Z,13.75
2024-02-29T11:47:48.065Z,13.14
2024-02-29T11:50:14.702Z,12.98
2024-02-29T11:52:41.729Z,12.79
2024-02-29T11:55:09.027Z,12.87
2024-02-29T11:57:35.884Z,12.78
2024-02-29T12:00:02.633Z,12.30
2024-02-29T12:02:29.295Z,11.98
2024-02-29T12:04:55.955Z,12.33
2024-02-29T12:07:22.728Z,11.61
2024-02-29T12:09:49.502Z,11.13
2024-02-29T12:12:16.918Z,11.53
2024-02-29T12:14:48.077Z,11.14
2024-02-29T12:17:14.775Z,10.91
2024-02-29T12:19:41.978Z,10.57
2024-02-29T12:22:13.813Z,9.99
2024-02-29T12:24:43.118Z,9.86
2024-02-29T12:27:10.170Z,9.67
2024-02-29T12:29:37.066Z,9.48
2024-02-29T12:32:04.139Z,8.93
2024-02-29T12:34:30.884Z,8.73
2024-02-29T12:36:57.813Z,9.00
2024-02-29T12:39:24.574Z,9.14
2024-02-29T12:41:51.275Z,9.58
2024-02-29T12:44:17.946Z,9.30
2024-02-29T12:46:44.565Z,9.17
2024-02-29T12:49:11.209Z,9.27
2024-02-29T12:51:38.270Z,9.65
2024-02-29T12:54:04.962Z,9.42
2024-02-29T12:56:31.968Z,9.35
2024-02-29T12:58:59.179Z,9.01
2024-02-29T13:01:26.079Z,8.85
2024-02-29T13:03:53.888Z,8.92
2024-02-29T13:06:20.781Z,9.43
2024-02-29T13:08:48.814Z,8.91
2024-02-29T13:11:16.450Z,8.96
2024-02-29T13:13:43.087Z,8.80
2024-02-29T13:16:09.887Z,8.95
2024-02-29T13:18:36.560Z,9.19
2024-02-29T13:21:05.995Z,9.13
2024-02-29T13:23:33.163Z,9.66
2024-02-29T13:26:00.700Z,9.63
2024-02-29T13:28:27.542Z,9.66
2024-02-29T13:30:54.239Z,9.81
2024-02-29T13:33:20.928Z,10.40
2024-02-29T13:35:47.699Z,10.14
2024-02-29T13:38:14.391Z,10.36
2024-02-29T13:40:41.051Z,10.93
2024-02-29T13:43:08.030Z,11.36
2024-02-29T13:45:38.839Z,10.83
2024-02-29T13:48:06.117Z,11.30
2024-02-29T13:50:33.428Z,11.82
2024-02-29T13:53:00.107Z,11.66
2024-02-29T13:55:26.768Z,11.46
2024-02-29T13:57:53.946Z,11.77
2024-02-29T14:00:21.616Z,11.75
2024-02-29T14:02:48.254Z,12.68
2024-02-29T14:05:16.404Z,12.40
2024-02-29T14:07:45.722Z,12.31
2024-02-29T14:10:14.221Z,12.86
2024-02-29T14:12:41.622Z,12.84
2024-02-29T14:15:09.046Z,12.59
2024-02-29T14:17:39.572Z,12.88
2024-02-29T14:20:07.225Z,13.47
2024-02-29T14:22:36.106Z,13.19
2024-02-29T14:25:03.020Z,12.77
2024-02-29T14:27:30.164Z,13.47
2024-02-29T14:29:58.008Z,13.16
2024-02-29T14:32:24.979Z,12.54
2024-02-29T14:34:51.660Z,13.13
2024-02-29T14:37:18.443Z,13.06
2024-02-29T14:39:45.363Z,12.28
2024-02-29T14:42:12.121Z,12.34
2024-02-29T14:44:38.797Z,12.11
2024-02-29T14:47:05.731Z,11.72
2024-02-29T14:49:32.542Z,11.72
2024-02-29T14:51:59.293Z,11.96
2024-02-29T14:54:26.304Z,12.01
2024-02-29T14:56:53.093Z,12.69
2024-02-29T14:59:20.287Z,12.67
2024-02-29T15:01:47.007Z,12.80
2024-02-29T15:04:15.310Z,12.89
2024-02-29T15:06:42.155Z,13.29
2024-02-29T15:09:09.251Z,13.09
2024-02-29T15:11:36.324Z,12.85
2024-02-29T15:14:03.013Z,13.02
2024-02-29T15:16:30.276Z,12.76
2024-02-29T15:18:57.669Z,12.57
2024-02-29T15:21:24.376Z,12.93
2024-02-29T15:23:51.048Z,12.05
2024-02-29T15:26:18.136Z,11.62
2024-02-29T15:28:49.470Z,11.52
2024-02-29T15:31:16.863Z,10.98
2024-02-29T15:33:44.067Z,11.27
2024-02-29T15:36:11.106Z,10.98
2024-02-29T15:38:38.056Z,10.91
2024-02-29T15:41:04.860Z,11.08
2024-02-29T15:43:32.196Z,11.14
2024-02-29T15:45:59.150Z,11.68
2024-02-29T15:48:26.114Z,12.10
2024-02-29T15:50:52.802Z,12.29
2024-02-29T15:53:19.445Z,13.00
2024-02-29T15:55:50.860Z,13.52
2024-02-29T15:58:17.662Z,13.75
2024-02-29T16:00:44.437Z,14.57
2024-02-29T16:03:11.294Z,14.40
2024-02-29T16:05:37.940Z,14.76
2024-02-29T16:08:04.994Z,14.63
2024-02-29T16:10:32.859Z,15.19
2024-02-29T16:13:02.478Z,15.41
2024-02-29T16:15:30.554Z,14.22
2024-02-29T16:17:57.372Z,14.51
2024-02-29T16:20:24.257Z,14.62
2024-02-29T16:22:50.959Z,13.87
2024-02-29T16:25:19.395Z,13.32
2024-02-29T16:27:46.849Z,13.52
2024-02-29T16:30:14.624Z,12.97
2024-02-29T16:32:45.448Z,12.94
2024-02-29T16:35:13.498Z,13.48
2024-02-29T16:37:40.656Z,13.66
2024-02-29T16:40:07.859Z,13.85
2024-02-29T16:42:34.523Z,13.73
2024-02-29T16:45:01.233Z,13.58
2024-02-29T16:47:28.310Z,13.52
2024-02-29T16:49:55.251Z,13.75
2024-02-29T16:52:22.109Z,13.76
2024-02-29T16:54:48.961Z,13.99
2024-02-29T16:57:17.043Z,14.20
2024-02-29T16:59:43.780Z,14.37
2024-02-29T17:02:13.612Z,14.66
2024-02-29T17:04:42.026Z,14.69
2024-02-29T17:07:08.782Z,15.59
2024-02-29T17:09:37.224Z,14.31
2024-02-29T17:12:06.325Z,14.44
2024-02-29T17:14:33.027Z,13.94
2024-02-29T17:16:59.866Z,12.56
2024-02-29T17:19:26.641Z,13.71
2024-02-29T17:21:53.615Z,12.87
2024-02-29T17:24:22.956Z,13.14
2024-02-29T17:26:52.511Z,12.69
2024-02-29T17:29:25.203Z,12.75
2024-02-29T17:31:51.858Z,13.31
2024-02-29T17:34:18.491Z,14.86
2024-02-29T17:36:45.311Z,16.21
2024-02-29T17:39:12.229Z,17.29
2024-02-29T17:41:38.941Z,17.23
2024-02-29T17:44:05.693Z,16.96
2024-02-29T17:46:32.364Z,13.57
2024-02-29T17:48:59.245Z,16.27
2024-02-29T17:51:26.919Z,15.78
2024-02-29T17:53:53.568Z,15.73
2024-02-29T17:56:20.226Z,15.69
2024-02-29T17:58:50.093Z,13.45
2024-02-29T18:01:17.281Z,13.28
2024-02-29T18:03:47.175Z,13.92
2024-02-29T18:06:14.322Z,12.58
2024-02-29T18:08:41.651Z,12.45
2024-02-29T18:11:08.376Z,12.16
2024-02-29T18:13:35.028Z,12.05
2024-02-29T18:16:01.861Z,11.62
2024-02-29T18:18:28.530Z,11.48
2024-02-29T18:20:55.183Z,11.87
2024-02-29T18:23:21.969Z,11.78
2024-02-29T18:25:48.827Z,11.73
2024-02-29T18:28:18.358Z,11.28
2024-02-29T18:30:45.233Z,11.70
2024-02-29T18:33:11.913Z,11.88
2024-02-29T18:35:38.985Z,12.08
2024-02-29T18:38:05.806Z,12.85
2024-02-29T18:40:32.526Z,13.26
2024-02-29T18:42:59.214Z,13.23
2024-02-29T18:45:26.196Z,14.34
2024-02-29T18:47:52.990Z,13.45
2024-02-29T18:50:19.948Z,13.01
2024-02-29T18:52:47.470Z,12.95
2024-02-29T18:55:14.202Z,14.65
2024-02-29T18:57:41.682Z,14.84
2024-02-29T19:00:09.698Z,14.75
2024-02-29T19:02:36.518Z,15.57
2024-02-29T19:05:03.221Z,15.08
2024-02-29T19:07:29.988Z,16.98
2024-02-29T19:09:58.182Z,14.69
2024-02-29T19:12:27.154Z,14.46
2024-02-29T19:14:57.700Z,15.20
2024-02-29T19:17:24.935Z,15.75
2024-02-29T19:19:51.982Z,18.19
2024-02-29T19:22:18.755Z,16.47
2024-02-29T19:24:45.444Z,16.23
2024-02-29T19:27:12.094Z,16.59
2024-02-29T19:29:38.826Z,15.97
2024-02-29T19:32:05.664Z,15.90
2024-02-29T19:34:32.345Z,16.00
2024-02-29T19:36:59.153Z,15.63
2024-02-29T19:39:25.836Z,16.26
2024-02-29T19:41:52.582Z,16.66
2024-02-29T19:44:19.349Z,16.57
2024-02-29T19:46:47.744Z,17.56
2024-02-29T19:49:14.600Z,16.60
2024-02-29T19:51:42.212Z,16.90
2024-02-29T19:54:08.944Z,16.85
2024-02-29T19:56:35.615Z,16.62
2024-02-29T19:59:02.227Z,15.81
2024-02-29T20:01:29.194Z,15.47
2024-02-29T20:03:55.853Z,15.57
2024-02-29T20:06:22.701Z,16.16
2024-02-29T20:08:49.457Z,15.61
2024-02-29T20:11:16.218Z,15.80
2024-02-29T20:13:45.002Z,20.13
2024-02-29T20:16:12.095Z,17.39
2024-02-29T20:18:38.772Z,16.31
2024-02-29T20:21:05.929Z,16.62
2024-02-29T20:23:32.556Z,19.22
2024-02-29T20:25:59.224Z,16.18
2024-02-29T20:28:25.919Z,15.59
2024-02-29T20:30:54.675Z,15.63
2024-02-29T20:33:21.366Z,16.59
2024-02-29T20:35:48.115Z,16.02
2024-02-29T20:38:15.170Z,15.60
2024-02-29T20:40:42.022Z,16.25
2024-02-29T20:43:08.854Z,15.83
2024-02-29T20:45:35.594Z,15.51
2024-02-29T20:48:03.280Z,15.28
2024-02-29T20:50:30.306Z,15.73
2024-02-29T20:52:57.122Z,15.50
2024-02-29T20:55:24.373Z,16.11
2024-02-29T20:57:51.073Z,17.47
2024-02-29T21:00:18.200Z,17.97
2024-02-29T21:02:44.985Z,17.25
2024-02-29T21:05:11.619Z,18.04
2024-02-29T21:07:40.912Z,17.42
2024-02-29T21:10:10.116Z,16.48
2024-02-29T21:12:36.889Z,16.15
2024-02-29T21:15:04.529Z,16.11
2024-02-29T21:17:31.513Z,15.66
2024-02-29T21:19:59.326Z,15.46
2024-02-29T21:22:27.286Z,15.17
2024-02-29T21:24:54.308Z,15.28
2024-02-29T21:27:21.260Z,15.12
2024-02-29T21:29:48.048Z,14.45
2024-02-29T21:32:14.791Z,15.10
2024-02-29T21:34:44.663Z,14.71
2024-02-29T21:37:11.700Z,15.10
2024-02-29T21:39:44.373Z,14.80
2024-02-29T21:42:12.512Z,14.43
2024-02-29T21:44:39.707Z,14.17
2024-02-29T21:47:06.516Z,14.79
2024-02-29T21:49:33.185Z,14.24
2024-02-29T21:51:59.903Z,15.27
2024-02-29T21:54:26.921Z,14.84
2024-02-29T21:56:53.613Z,14.86
2024-02-29T21:59:20.270Z,15.07
2024-02-29T22:01:47.795Z,15.60
2024-02-29T22:04:14.916Z,15.06
2024-02-29T22:06:44.923Z,15.41
2024-02-29T22:09:11.866Z,15.02
2024-02-29T22:11:38.548Z,15.14
2024-02-29T22:14:05.192Z,14.51
2024-02-29T22:16:32.747Z,13.95
2024-02-29T22:18:59.524Z,14.42
2024-02-29T22:21:29.523Z,14.48
2024-02-29T22:23:57.750Z,15.24
2024-02-29T22:26:24.915Z,14.64
2024-02-29T22:28:52.772Z,14.09
2024-02-29T22:31:19.905Z,14.21
2024-02-29T22:33:46.749Z,14.00
2024-02-29T22:36:13.527Z,13.94
2024-02-29T22:38:40.681Z,14.49
2024-02-29T22:41:07.348Z,13.90
2024-02-29T22:43:34.331Z,13.84
2024-02-29T22:46:01.099Z,14.32
2024-02-29T22:48:27.851Z,13.53
2024-02-29T22:50:54.524Z,14.36
2024-02-29T22:53:22.168Z,13.87
2024-02-29T22:55:51.353Z,13.54
2024-02-29T22:58:19.903Z,13.32
2024-02-29T23:00:53.390Z,13.56
2024-02-29T23:03:22.284Z,13.79
2024-02-29T23:05:49.535Z,13.30
2024-02-29T23:08:16.730Z,13.25
2024-02-29T23:10:43.528Z,13.20
2024-02-29T23:13:11.200Z,13.13
2024-02-29T23:15:37.967Z,12.94
2024-02-29T23:18:05.325Z,13.30
2024-02-29T23:20:32.550Z,12.98
2024-02-29T23:23:00.834Z,12.86
2024-02-29T23:25:27.744Z,13.02
2024-02-29T23:27:54.626Z,12.27
2024-02-29T23:30:21.537Z,12.56
2024-02-29T23:32:48.201Z,12.56
2024-02-29T23:35:15.008Z,12.17
2024-02-29T23:37:41.720Z,12.20
2024-02-29T23:40:08.891Z,12.30
2024-02-29T23:42:35.659Z,12.55
2024-02-29T23:45:02.271Z,12.13
2024-02-29T23:47:29.021Z,11.72
2024-02-29T23:49:55.764Z,12.00
2024-02-29T23:52:22.480Z,11.98
2024-02-29T23:54:49.279Z,12.08
2024-02-29T23:57:16.700Z,12.14
2024-02-29T23:59:43.347Z,11.67
